Time;durP1;ratioP1;P1;durP2;ratioP2;P2;SDS_P1;SDS_P2;PMS_P1;PMS_P2;Temp;Humidity;BMP_temperature;BMP_pressure;BME280_temperature;BME280_humidity;BME280_pressure;Samples;Min_cycle;Max_cycle;Signal;HPM_P1;HPM_P2
2023/09/04 00:00:56;;;;;;;26.70;19.27;;;;;;;-145.63;55.72;39186.56;5022777;28;20041;-67
2023/09/04 00:03:22;;;;;;;23.50;18.20;;;;;;;-145.63;55.80;39125.94;5026675;28;20029;-66
2023/09/04 00:05:48;;;;;;;25.38;18.85;;;;;;;-145.63;56.05;39125.94;5030560;28;20029;-67
2023/09/04 00:08:14;;;;;;;27.95;19.55;;;;;;;-145.63;56.10;39141.59;5028624;28;20344;-67
2023/09/04 00:10:40;;;;;;;26.77;18.48;;;;;;;-145.63;55.92;38877.56;5023689;28;20048;-68
2023/09/04 00:13:06;;;;;;;26.33;19.08;;;;;;;-145.63;56.22;39123.97;5023634;28;20026;-66
2023/09/04 00:15:31;;;;;;;26.13;19.75;;;;;;;-145.63;56.00;39122.03;5023567;28;20022;-67
2023/09/04 00:17:57;;;;;;;24.05;18.20;;;;;;;-145.63;56.25;39116.16;5023488;28;20026;-68
2023/09/04 00:20:24;;;;;;;25.52;18.90;;;;;;;-145.63;56.39;39133.75;5022928;28;20033;-67
2023/09/04 00:22:50;;;;;;;28.23;19.20;;;;;;;-145.63;56.20;39108.34;5022066;28;20022;-66
2023/09/04 00:25:16;;;;;;;25.65;19.33;;;;;;;-145.63;56.37;39129.84;5023281;28;20066;-67
2023/09/04 00:27:42;;;;;;;28.85;19.98;;;;;;;-145.63;56.45;39122.03;5023437;28;20517;-68
2023/09/04 00:30:08;;;;;;;29.75;19.63;;;;;;;-145.63;56.17;39122.03;5022979;28;20037;-67
2023/09/04 00:32:34;;;;;;;26.77;18.55;;;;;;;-145.63;56.35;39133.75;5023424;28;20038;-67
2023/09/04 00:34:59;;;;;;;26.90;19.60;;;;;;;-145.63;56.19;38938.19;5022933;28;20028;-68
2023/09/04 00:37:25;;;;;;;28.73;18.65;;;;;;;-145.63;56.44;39157.22;5023198;28;20084;-67
2023/09/04 00:39:51;;;;;;;29.77;20.23;;;;;;;-145.63;56.24;39133.75;5023182;28;20084;-67
2023/09/04 00:42:16;;;;;;;25.40;19.38;;;;;;;-145.63;56.10;39151.38;5024337;28;20029;-66
2023/09/04 00:44:49;;;;;;;26.52;18.73;;;;;;;-145.63;56.24;39159.19;5029241;28;20040;-67
2023/09/04 00:47:17;;;;;;;25.02;18.65;;;;;;;-145.63;56.03;39088.78;5008014;28;20021;-67
2023/09/04 00:49:45;;;;;;;23.50;18.50;;;;;;;-145.63;56.18;39264.78;5013981;28;20033;-72
2023/09/04 00:52:11;;;;;;;24.30;18.02;;;;;;;-145.63;56.68;39159.19;5023139;28;20030;-70
2023/09/04 00:54:38;;;;;;;24.58;17.55;;;;;;;-145.63;56.41;39123.97;5023482;28;20206;-70
2023/09/04 00:57:05;;;;;;;24.58;17.83;;;;;;;-145.63;56.34;39151.38;5023117;28;20077;-69
2023/09/04 00:59:31;;;;;;;28.83;18.98;;;;;;;-145.63;56.44;39131.81;5017379;28;20034;-70
2023/09/04 01:02:00;;;;;;;24.20;18.92;;;;;;;-145.63;56.38;39149.41;5012848;28;20052;-71
2023/09/04 01:04:26;;;;;;;25.20;19.52;;;;;;;-145.63;56.77;39123.97;5023494;28;20042;-71
2023/09/04 01:06:55;;;;;;;25.60;18.13;;;;;;;-145.63;56.53;39145.50;5023239;28;20026;-69
2023/09/04 01:09:21;;;;;;;30.02;19.15;;;;;;;-145.63;56.49;39151.38;5021818;28;20022;-69
2023/09/04 01:11:51;;;;;;;28.60;18.13;;;;;;;-145.63;56.74;39180.69;5023153;28;20051;-70
2023/09/04 01:14:19;;;;;;;31.55;18.98;;;;;;;-145.63;56.50;39180.69;5026503;28;20030;-69
2023/09/04 01:16:46;;;;;;;26.65;19.13;;;;;;;-145.63;56.72;39133.75;5026710;28;20336;-69
2023/09/04 01:19:12;;;;;;;21.88;17.45;;;;;;;-145.63;56.66;39163.09;5026428;28;20052;-70
2023/09/04 01:21:38;;;;;;;26.52;17.63;;;;;;;-145.63;56.51;39133.75;5026944;28;20025;-70
2023/09/04 01:24:04;;;;;;;26.17;18.90;;;;;;;-145.63;56.51;39153.31;5026387;28;20385;-70
2023/09/04 01:26:52;;;;;;;24.60;18.17;;;;;;;-145.63;56.41;39163.09;5026348;28;20091;-69
2023/09/04 01:30:09;;;;;;;24.95;17.60;;;;;;;-145.63;56.42;39163.09;5026361;28;20017;-69
2023/09/04 01:32:40;;;;;;;27.02;17.08;;;;;;;-145.63;56.66;39133.75;4972570;28;20038;-68
2023/09/04 01:35:09;;;;;;;25.25;18.48;;;;;;;-145.63;56.52;39170.91;4980604;28;20632;-68
2023/09/04 01:37:36;;;;;;;24.45;17.35;;;;;;;-145.63;56.43;39167.00;4985240;28;20046;-68
2023/09/04 01:40:04;;;;;;;29.13;17.58;;;;;;;-145.63;56.30;39155.28;4975533;28;20023;-68
2023/09/04 01:42:30;;;;;;;23.83;17.58;;;;;;;-145.63;56.40;39165.06;4971685;28;20039;-68
2023/09/04 01:44:56;;;;;;;24.05;17.15;;;;;;;-145.63;56.26;39151.38;4962733;28;20086;-69
2023/09/04 01:47:22;;;;;;;27.80;17.17;;;;;;;-145.63;56.27;39145.50;4981507;28;20090;-69
2023/09/04 01:49:49;;;;;;;24.48;17.60;;;;;;;-145.63;56.59;39161.13;4985110;28;20192;-68
2023/09/04 01:52:15;;;;;;;22.20;17.00;;;;;;;-145.63;56.47;39159.19;4974418;28;20106;-69
2023/09/04 01:54:40;;;;;;;24.05;16.67;;;;;;;-145.63;56.34;39145.50;4982569;28;20039;-69
2023/09/04 01:57:06;;;;;;;24.00;16.92;;;;;;;-145.63;56.35;39127.91;4974660;28;20047;-66
2023/09/04 01:59:33;;;;;;;24.92;17.02;;;;;;;-145.63;56.46;39145.50;4981570;28;20320;-70
2023/09/04 02:01:59;;;;;;;27.38;17.52;;;;;;;-145.63;56.41;39135.72;4986519;28;20069;-70
2023/09/04 02:04:24;;;;;;;24.33;17.27;;;;;;;-145.63;56.57;39149.41;5025726;28;20030;-70
2023/09/04 02:06:50;;;;;;;27.42;18.10;;;;;;;-145.63;56.67;39145.50;5025477;28;20025;-70
2023/09/04 02:09:16;;;;;;;24.98;17.33;;;;;;;-145.63;56.40;39180.69;5025614;28;20302;-70
2023/09/04 02:11:41;;;;;;;24.58;17.83;;;;;;;-145.63;56.53;39163.09;5025766;28;20037;-69
2023/09/04 02:14:07;;;;;;;22.55;16.92;;;;;;;-145.63;56.37;39180.69;5025340;28;20030;-68
2023/09/04 02:16:33;;;;;;;24.08;17.45;;;;;;;-145.63;56.58;39170.91;5025587;28;20045;-68
2023/09/04 02:18:59;;;;;;;25.95;17.98;;;;;;;-145.63;56.59;39200.25;5025505;28;20029;-69
2023/09/04 02:21:44;;;;;;;23.70;17.83;;;;;;;-145.63;56.27;39206.13;5024813;28;20182;-69
2023/09/04 02:24:10;;;;;;;26.48;18.25;;;;;;;-145.63;56.49;39188.53;5024450;28;20042;-68
2023/09/04 02:26:37;;;;;;;126.88;112.82;;;;;;;-145.63;56.66;39172.88;5025108;28;20042;-69
2023/09/04 02:29:02;;;;;;;27.63;21.23;;;;;;;-145.63;56.24;39170.91;5025254;28;20037;-69
2023/09/04 02:31:28;;;;;;;25.60;19.10;;;;;;;-145.63;56.70;39165.06;5024993;28;20372;-69
2023/09/04 02:33:53;;;;;;;26.02;17.83;;;;;;;-145.63;56.30;39165.06;5025173;28;20055;-69
2023/09/04 02:36:23;;;;;;;24.45;16.60;;;;;;;-145.63;56.27;39170.91;5025173;28;20041;-69
2023/09/04 02:38:48;;;;;;;22.17;15.27;;;;;;;-145.63;56.47;39196.34;5024113;28;20026;-69
2023/09/04 02:41:14;;;;;;;24.70;16.20;;;;;;;-145.63;56.56;39174.84;5025059;28;21331;-69
2023/09/04 02:43:40;;;;;;;23.60;18.13;;;;;;;-145.63;56.26;39168.97;5031221;28;20089;-69
2023/09/04 02:46:06;;;;;;;23.88;16.27;;;;;;;-145.63;56.26;39223.72;5034811;28;20052;-70
2023/09/04 02:48:31;;;;;;;18.40;14.43;;;;;;;-145.63;56.38;39188.53;5024952;28;20045;-70
2023/09/04 02:51:00;;;;;;;20.67;14.57;;;;;;;-145.63;56.31;39200.25;5024864;28;20066;-68
2023/09/04 02:53:28;;;;;;;20.00;14.73;;;;;;;-145.63;56.51;39200.25;5023576;28;20227;-69
2023/09/04 02:55:54;;;;;;;24.90;14.63;;;;;;;-145.63;56.38;39215.91;5023605;28;20018;-68
2023/09/04 02:58:22;;;;;;;22.08;14.27;;;;;;;-145.63;56.51;39202.22;5024427;28;20032;-68
2023/09/04 03:00:47;;;;;;;18.45;14.27;;;;;;;-145.63;56.54;39182.66;5024571;28;20036;-69
2023/09/04 03:03:13;;;;;;;22.35;14.98;;;;;;;-145.63;56.23;39159.19;5028498;28;20267;-69
2023/09/04 03:05:39;;;;;;;24.55;15.13;;;;;;;-145.63;56.40;39161.13;5029070;28;20119;-69
2023/09/04 03:08:05;;;;;;;20.95;14.50;;;;;;;-145.63;56.58;39182.66;5024585;28;20369;-69
2023/09/04 03:10:31;;;;;;;26.02;14.55;;;;;;;-145.63;56.26;39188.53;5024362;28;20030;-69
2023/09/04 03:12:57;;;;;;;21.58;14.73;;;;;;;-145.63;56.20;39192.44;5024254;28;20085;-68
2023/09/04 03:15:22;;;;;;;23.33;14.60;;;;;;;-145.63;56.55;39196.34;5024079;28;20021;-70
2023/09/04 03:17:48;;;;;;;27.60;15.02;;;;;;;-145.63;56.68;39196.34;5024526;28;20060;-69
2023/09/04 03:20:19;;;;;;;22.58;14.23;;;;;;;-145.63;56.63;39174.84;5024594;28;20272;-70
2023/09/04 03:22:45;;;;;;;27.80;15.50;;;;;;;-145.63;56.75;39196.34;5024242;28;20030;-69
2023/09/04 03:25:11;;;;;;;21.52;13.32;;;;;;;-145.63;56.98;39165.06;5024241;28;20478;-68
2023/09/04 03:27:37;;;;;;;21.63;13.80;;;;;;;-145.63;56.71;39198.31;5024350;28;20032;-68
2023/09/04 03:30:04;;;;;;;21.33;14.10;;;;;;;-145.63;56.85;39198.31;5023986;28;20065;-69
2023/09/04 03:32:33;;;;;;;17.70;13.52;;;;;;;-145.63;57.16;39165.06;5024383;28;20026;-69
2023/09/04 03:34:59;;;;;;;21.05;13.70;;;;;;;-145.63;56.76;39168.97;5024108;28;20198;-68
2023/09/04 03:37:25;;;;;;;22.38;15.27;;;;;;;-145.63;56.70;39176.78;5023212;28;20344;-68
2023/09/04 03:39:50;;;;;;;26.27;14.77;;;;;;;-145.63;56.83;39155.28;5023924;28;20029;-68
2023/09/04 03:42:16;;;;;;;20.42;13.43;;;;;;;-145.63;56.90;39147.44;5023936;28;20230;-67
2023/09/04 03:44:41;;;;;;;21.63;14.13;;;;;;;-145.63;57.06;39184.59;5027727;28;20037;-68
2023/09/04 03:47:07;;;;;;;19.67;13.77;;;;;;;-145.63;56.95;39180.69;5031975;28;20334;-68
2023/09/04 03:49:33;;;;;;;18.77;14.38;;;;;;;-145.63;57.02;39147.44;5023964;28;20080;-67
2023/09/04 03:51:59;;;;;;;21.38;14.07;;;;;;;-145.63;57.20;39161.13;5023665;28;20026;-69
2023/09/04 03:54:25;;;;;;;19.40;13.45;;;;;;;-145.63;57.15;39180.69;5023650;28;20022;-67
2023/09/04 03:56:51;;;;;;;18.63;14.32;;;;;;;-145.63;57.14;39145.50;5023835;28;20301;-68
2023/09/04 03:59:17;;;;;;;21.95;14.60;;;;;;;-145.63;57.27;39137.69;5022378;28;20388;-70
2023/09/04 04:01:43;;;;;;;23.42;16.15;;;;;;;-145.63;57.52;39147.44;5027641;28;20249;-68
2023/09/04 04:04:11;;;;;;;22.13;15.10;;;;;;;-145.63;57.39;39145.50;5025277;28;20350;-68
2023/09/04 04:06:36;;;;;;;21.05;15.35;;;;;;;-145.63;57.38;39145.50;5023489;28;20022;-68
2023/09/04 04:09:03;;;;;;;26.20;18.23;;;;;;;-145.63;57.64;39047.72;5023588;28;20028;-66
2023/09/04 04:11:29;;;;;;;23.35;16.67;;;;;;;-145.63;57.57;39145.50;5022248;28;20186;-67
2023/09/04 04:13:54;;;;;;;19.98;16.30;;;;;;;-145.63;57.63;39149.41;5035864;28;20060;-67
2023/09/04 04:16:20;;;;;;;21.25;15.48;;;;;;;-145.63;57.47;39094.66;5032245;28;20026;-68
2023/09/04 04:18:46;;;;;;;22.42;16.75;;;;;;;-145.63;57.22;39129.84;5030920;28;20321;-68
2023/09/04 04:21:11;;;;;;;22.77;16.48;;;;;;;-145.63;57.15;39114.22;5023212;28;20352;-68
2023/09/04 04:23:38;;;;;;;24.92;17.00;;;;;;;-145.63;57.39;39120.06;5018524;28;20046;-68
2023/09/04 04:26:03;;;;;;;26.23;17.35;;;;;;;-145.63;57.41;39090.75;5019693;28;20032;-68
2023/09/04 04:28:29;;;;;;;25.17;16.02;;;;;;;-145.63;56.95;39086.81;5022560;28;20034;-69
2023/09/04 04:30:57;;;;;;;22.15;18.17;;;;;;;-145.63;56.78;39114.22;5023506;28;20026;-67
2023/09/04 04:33:22;;;;;;;22.92;17.45;;;;;;;-145.63;56.71;39065.31;5031695;28;20036;-66
2023/09/04 04:35:55;;;;;;;26.40;18.95;;;;;;;-145.63;56.95;39096.59;5023397;28;20037;-67
2023/09/04 04:38:20;;;;;;;22.27;18.13;;;;;;;-145.63;55.91;39061.41;5021529;28;20085;-68
2023/09/04 04:40:46;;;;;;;25.63;18.25;;;;;;;-145.63;55.63;39125.94;5023190;28;20060;-69
2023/09/04 04:43:12;;;;;;;22.95;15.48;;;;;;;-145.63;55.70;39082.91;5023730;28;20097;-68
2023/09/04 04:45:38;;;;;;;25.88;18.05;;;;;;;-145.63;55.67;39082.91;5033183;28;20021;-68
2023/09/04 04:48:04;;;;;;;24.13;17.40;;;;;;;-145.63;54.53;39067.28;5030403;28;20032;-67
2023/09/04 04:50:30;;;;;;;19.88;15.35;;;;;;;-145.63;55.09;39026.19;5027608;28;20326;-67
2023/09/04 04:52:55;;;;;;;21.75;17.08;;;;;;;-145.63;55.59;39075.09;5026860;28;20092;-68
2023/09/04 04:55:21;;;;;;;24.02;15.65;;;;;;;-145.63;55.20;39073.13;5026633;28;20041;-68
2023/09/04 04:57:47;;;;;;;28.42;16.77;;;;;;;-145.63;54.82;39018.38;5026945;28;20030;-69
2023/09/04 05:00:13;;;;;;;21.83;16.02;;;;;;;-145.63;54.95;39039.88;5026196;28;20037;-67
2023/09/04 05:02:38;;;;;;;18.90;13.88;;;;;;;-145.63;54.29;38994.91;5026202;28;20037;-69
2023/09/04 05:05:04;;;;;;;18.48;13.18;;;;;;;-145.63;54.17;39039.88;5026647;28;20025;-68
2023/09/04 05:07:31;;;;;;;22.00;13.23;;;;;;;-145.63;53.75;39022.28;5028698;28;20302;-69
2023/09/04 05:09:57;;;;;;;17.98;13.98;;;;;;;-145.63;54.48;39028.16;5025557;28;20033;-68
2023/09/04 05:12:23;;;;;;;17.20;13.30;;;;;;;-145.63;53.61;39039.88;5031487;28;20093;-67
2023/09/04 05:14:50;;;;;;;17.90;12.45;;;;;;;-145.63;53.46;39004.69;5026033;28;20034;-67
2023/09/04 05:17:16;;;;;;;14.18;11.60;;;;;;;-145.63;53.38;38989.03;5026578;28;20299;-67
2023/09/04 05:19:42;;;;;;;16.10;12.85;;;;;;;-145.63;53.63;38994.91;5026562;28;20089;-67
2023/09/04 05:22:09;;;;;;;15.20;11.60;;;;;;;-145.63;53.21;39018.38;5026018;28;20032;-67
2023/09/04 05:24:35;;;;;;;15.18;11.15;;;;;;;-145.63;53.13;38998.81;5026426;28;20298;-68
2023/09/04 05:27:03;;;;;;;15.23;12.48;;;;;;;-145.63;53.23;39034.03;5025199;28;20032;-68
2023/09/04 05:29:29;;;;;;;16.25;10.43;;;;;;;-145.63;53.15;38977.31;5026268;28;20209;-68
2023/09/04 05:31:56;;;;;;;15.15;10.45;;;;;;;-145.63;53.07;38967.53;5026309;28;20369;-68
2023/09/04 05:34:21;;;;;;;10.90;9.75;;;;;;;-145.63;52.67;38969.50;5025868;28;20061;-68
2023/09/04 05:36:47;;;;;;;12.20;9.15;;;;;;;-145.63;52.02;38987.09;5025853;28;20029;-68
2023/09/04 05:39:13;;;;;;;10.35;8.30;;;;;;;-145.63;51.61;38979.28;5025815;28;20033;-68
2023/09/04 05:41:39;;;;;;;10.73;8.38;;;;;;;-145.63;51.00;38916.69;5026027;28;20108;-68
2023/09/04 05:44:05;;;;;;;13.00;8.35;;;;;;;-145.63;51.03;38947.97;5025719;28;20053;-69
2023/09/04 05:46:31;;;;;;;11.02;8.77;;;;;;;-145.63;50.89;38934.28;5025329;28;20056;-68
2023/09/04 05:48:57;;;;;;;10.45;8.50;;;;;;;-145.63;50.92;38930.38;5025711;28;20030;-68
2023/09/04 05:51:22;;;;;;;14.05;9.27;;;;;;;-145.63;51.21;38924.50;5025820;28;20186;-68
2023/09/04 05:53:49;;;;;;;11.15;8.40;;;;;;;-145.63;50.89;38912.78;5019791;28;20018;-68
2023/09/04 05:56:15;;;;;;;13.50;8.48;;;;;;;-145.63;50.87;38908.88;5025439;28;20029;-67
2023/09/04 05:58:48;;;;;;;12.25;8.38;;;;;;;-145.63;50.80;38908.88;5015037;28;20018;-68
2023/09/04 06:01:15;;;;;;;13.73;8.43;;;;;;;-145.63;50.53;38858.03;5022986;28;20190;-67
2023/09/04 06:03:42;;;;;;;10.15;7.80;;;;;;;-145.63;50.32;38887.34;5017956;28;20030;-68
2023/09/04 06:06:07;;;;;;;14.32;8.30;;;;;;;-145.63;49.82;38832.59;5025882;28;20068;-67
2023/09/04 06:08:34;;;;;;;9.82;8.20;;;;;;;-145.63;49.86;38877.56;5020978;28;20022;-67
2023/09/04 06:11:00;;;;;;;12.95;7.70;;;;;;;-145.63;49.44;38863.88;5025464;28;20326;-68
2023/09/04 06:13:26;;;;;;;10.82;6.25;;;;;;;-145.63;49.72;38850.19;5025534;28;20053;-68
2023/09/04 06:15:52;;;;;;;9.75;7.38;;;;;;;-145.63;49.80;38820.88;5025292;28;20109;-68
2023/09/04 06:18:22;;;;;;;14.70;7.03;;;;;;;-145.63;49.62;38832.59;5025511;28;20030;-68
2023/09/04 06:20:48;;;;;;;8.57;6.28;;;;;;;-145.63;49.35;38834.56;5025349;28;20318;-67
2023/09/04 06:23:13;;;;;;;10.23;6.25;;;;;;;-145.63;48.70;38813.03;5024878;28;20053;-68
2023/09/04 06:25:43;;;;;;;9.60;6.32;;;;;;;-145.63;47.98;38785.66;5025402;28;20341;-67
2023/09/04 06:28:10;;;;;;;9.43;6.38;;;;;;;-145.63;47.80;38816.97;5025080;28;20136;-68
2023/09/04 06:30:37;;;;;;;9.75;5.95;;;;;;;-145.63;47.68;38785.66;5025111;28;20244;-68
2023/09/04 06:33:03;;;;;;;9.23;6.45;;;;;;;-145.63;48.01;38822.81;5023951;28;20025;-67
2023/09/04 06:35:29;;;;;;;12.85;6.07;;;;;;;-145.63;47.72;38742.66;5025138;28;20018;-69
2023/09/04 06:37:55;;;;;;;9.52;6.05;;;;;;;-145.63;47.59;38762.22;5024986;28;20204;-68
2023/09/04 06:40:21;;;;;;;9.07;5.93;;;;;;;-145.63;47.87;38695.72;5024773;28;20025;-68
2023/09/04 06:42:47;;;;;;;12.68;6.28;;;;;;;-145.63;47.98;38777.84;5025149;28;20030;-68
2023/09/04 06:45:13;;;;;;;7.05;5.43;;;;;;;-145.63;47.04;38752.44;5024819;28;20057;-68
2023/09/04 06:47:40;;;;;;;10.95;5.25;;;;;;;-145.63;47.36;38719.19;5023662;28;20084;-68
2023/09/04 06:50:07;;;;;;;8.98;5.45;;;;;;;-145.63;46.58;38748.50;5024691;28;20253;-68
2023/09/04 06:52:33;;;;;;;8.00;5.22;;;;;;;-145.63;46.72;38760.25;5024825;28;20022;-68
2023/09/04 06:54:59;;;;;;;8.32;4.35;;;;;;;-145.63;46.48;38500.19;5027223;28;20089;-67
2023/09/04 06:57:25;;;;;;;5.85;5.20;;;;;;;-145.63;46.14;38701.59;5028935;28;20089;-67
2023/09/04 06:59:52;;;;;;;7.55;4.97;;;;;;;-145.63;46.53;38687.91;5026579;28;20029;-68
2023/09/04 07:02:19;;;;;;;8.88;5.07;;;;;;;-145.63;45.69;38685.94;5008341;28;20029;-69
2023/09/04 07:04:45;;;;;;;6.88;4.88;;;;;;;-145.63;44.90;38633.16;5024797;28;20056;-67
2023/09/04 07:07:11;;;;;;;8.05;4.20;;;;;;;-145.63;45.66;38625.31;5026050;28;20030;-68
2023/09/04 07:09:36;;;;;;;4.85;4.25;;;;;;;-145.63;44.21;38654.66;5029791;28;20085;-68
2023/09/04 07:12:03;;;;;;;8.45;4.65;;;;;;;-145.63;44.31;38590.13;5017851;28;20029;-69
2023/09/04 07:14:28;;;;;;;5.78;4.53;;;;;;;-145.63;44.32;38603.81;5023092;28;20041;-67
2023/09/04 07:16:54;;;;;;;6.35;4.95;;;;;;;-145.63;44.44;38597.94;5024253;28;20026;-67
2023/09/04 07:19:20;;;;;;;7.70;4.60;;;;;;;-145.63;44.45;38570.56;5023983;28;20026;-67
2023/09/04 07:21:45;;;;;;;5.30;3.95;;;;;;;-145.63;43.24;38564.72;5028359;28;20064;-67
2023/09/04 07:24:11;;;;;;;7.85;4.45;;;;;;;-145.63;43.26;38578.41;5034024;28;20046;-68
2023/09/04 07:26:37;;;;;;;4.15;3.75;;;;;;;-145.63;42.79;38488.44;5028303;28;20075;-68
2023/09/04 07:29:03;;;;;;;3.90;3.35;;;;;;;-145.63;42.95;38523.66;5025112;28;20318;-69
2023/09/04 07:31:29;;;;;;;4.57;3.55;;;;;;;-145.63;42.82;38529.50;5023605;28;20029;-68
2023/09/04 07:33:55;;;;;;;9.95;4.68;;;;;;;-145.63;43.10;38498.22;5023916;28;20021;-68
2023/09/04 07:36:20;;;;;;;6.00;3.60;;;;;;;-145.63;43.02;38527.56;5023638;28;20053;-68
2023/09/04 07:38:48;;;;;;;7.43;4.35;;;;;;;-145.63;43.74;38486.50;5019987;28;20034;-68
2023/09/04 07:41:13;;;;;;;4.95;3.55;;;;;;;-145.63;42.35;38533.41;5032457;28;20026;-69
2023/09/04 07:43:39;;;;;;;6.30;3.72;;;;;;;-145.63;42.46;38506.03;5028779;28;20048;-68
2023/09/04 07:46:05;;;;;;;5.93;3.53;;;;;;;-145.63;42.37;38515.81;5028326;28;20341;-68
2023/09/04 07:48:31;;;;;;;6.43;5.00;;;;;;;-145.63;42.46;38506.03;5023982;28;20038;-68
2023/09/04 07:50:57;;;;;;;4.68;3.35;;;;;;;-145.63;41.19;38529.50;5022347;28;20392;-67
2023/09/04 07:53:23;;;;;;;6.07;3.40;;;;;;;-145.63;43.40;38519.72;5028639;28;20041;-67
2023/09/04 07:55:49;;;;;;;6.93;3.38;;;;;;;-145.63;43.05;38506.03;5029770;28;20033;-68
2023/09/04 07:58:15;;;;;;;10.57;4.38;;;;;;;-145.63;42.00;38515.81;5033475;28;20036;-68
2023/09/04 08:00:48;;;;;;;5.28;3.17;;;;;;;-145.63;41.58;38515.81;5023501;28;20030;-68
2023/09/04 08:03:14;;;;;;;4.10;3.58;;;;;;;-145.63;42.23;38482.59;5023158;28;20121;-68
2023/09/04 08:05:41;;;;;;;8.70;4.10;;;;;;;-145.63;42.81;38488.44;5024323;28;20022;-68
2023/09/04 08:08:10;;;;;;;7.30;3.50;;;;;;;-145.63;42.90;38279.22;5023258;28;20080;-69
2023/09/04 08:10:42;;;;;;;5.20;2.88;;;;;;;-145.63;41.29;38459.13;5032086;28;20026;-67
2023/09/04 08:13:16;;;;;;;9.02;3.20;;;;;;;-145.63;40.89;38455.22;5022925;28;20206;-68
2023/09/04 08:15:42;;;;;;;3.88;2.92;;;;;;;-145.63;40.57;38486.50;5022635;28;20037;-68
2023/09/04 08:18:08;;;;;;;5.00;3.20;;;;;;;-145.63;40.81;38461.06;5026043;28;20225;-68
2023/09/04 08:20:35;;;;;;;4.45;3.13;;;;;;;-145.63;41.24;38429.78;5024665;28;20029;-68
2023/09/04 08:23:01;;;;;;;5.95;3.17;;;;;;;-145.63;40.73;38523.66;5022199;28;20062;-68
2023/09/04 08:25:27;;;;;;;6.65;3.28;;;;;;;-145.63;40.64;38394.59;5023216;28;20214;-69
2023/09/04 08:27:52;;;;;;;5.05;3.08;;;;;;;-145.63;40.17;38414.16;5022682;28;20210;-68
2023/09/04 08:30:18;;;;;;;4.85;3.70;;;;;;;-145.63;40.36;38402.41;5022939;28;20030;-68
2023/09/04 08:32:44;;;;;;;4.63;3.10;;;;;;;-145.63;40.42;38371.13;5022872;28;20101;-68
2023/09/04 08:35:11;;;;;;;4.25;2.65;;;;;;;-145.63;39.43;38367.22;5022422;28;20038;-69
2023/09/04 08:37:38;;;;;;;4.30;2.83;;;;;;;-145.63;39.66;38373.09;5028328;28;20041;-68
2023/09/04 08:40:05;;;;;;;3.60;2.60;;;;;;;-145.63;39.43;38363.31;5032332;28;20032;-69
2023/09/04 08:42:31;;;;;;;3.60;2.72;;;;;;;-145.63;40.04;38285.09;5022879;28;20041;-69
2023/09/04 08:44:57;;;;;;;3.75;2.17;;;;;;;-145.63;39.05;38259.69;5021521;28;20057;-68
2023/09/04 08:47:23;;;;;;;5.55;3.05;;;;;;;-145.63;39.22;38232.31;5020969;28;20041;-70
2023/09/04 08:49:50;;;;;;;5.68;2.55;;;;;;;-145.63;38.18;38179.50;5014025;28;20033;-69
2023/09/04 08:52:16;;;;;;;4.70;3.08;;;;;;;-145.63;37.86;38130.63;5008347;28;20026;-69
2023/09/04 08:54:42;;;;;;;7.35;3.33;;;;;;;-145.63;37.06;38103.25;5020262;28;20041;-69
2023/09/04 08:57:08;;;;;;;3.17;2.47;;;;;;;-145.63;36.67;38066.13;5022316;28;20061;-69
2023/09/04 08:59:34;;;;;;;3.40;2.63;;;;;;;-145.63;36.17;38058.28;5022807;28;20037;-69
2023/09/04 09:02:04;;;;;;;3.28;2.70;;;;;;;-145.63;35.22;38105.22;5022727;28;20106;-68
2023/09/04 09:04:33;;;;;;;4.38;2.60;;;;;;;-145.63;33.27;38073.94;5022507;28;20034;-69
2023/09/04 09:07:01;;;;;;;6.22;2.47;;;;;;;-145.63;33.33;38101.31;5026273;28;20029;-68
2023/09/04 09:09:28;;;;;;;5.03;2.80;;;;;;;-145.63;34.10;38064.16;5025448;28;20025;-68
2023/09/04 09:11:54;;;;;;;2.90;2.63;;;;;;;-145.63;34.54;37968.38;5030327;28;20045;-69
2023/09/04 09:14:20;;;;;;;3.10;2.33;;;;;;;-145.63;33.06;38015.28;5028934;28;20033;-68
2023/09/04 09:16:46;;;;;;;2.75;2.55;;;;;;;-145.63;32.85;38036.78;5019381;28;20270;-68
2023/09/04 09:19:13;;;;;;;4.28;2.67;;;;;;;-145.63;33.65;38056.34;5022410;28;20029;-69
2023/09/04 09:21:39;;;;;;;3.22;2.90;;;;;;;-145.63;33.78;37984.00;5024277;28;20059;-68
2023/09/04 09:24:19;;;;;;;3.75;2.97;;;;;;;-145.63;32.95;38001.59;5027329;28;20100;-68
2023/09/04 09:26:47;;;;;;;3.42;2.50;;;;;;;-145.63;33.52;37970.31;5030559;28;20026;-68
2023/09/04 09:29:13;;;;;;;5.07;2.53;;;;;;;-145.63;33.47;37956.63;5022528;28;20101;-67
2023/09/04 09:31:42;;;;;;;3.55;2.53;;;;;;;-145.63;33.20;38003.56;5020238;28;20045;-68
2023/09/04 09:34:09;;;;;;;7.65;3.13;;;;;;;-145.63;33.75;37995.72;5025137;28;20061;-68
2023/09/04 09:36:35;;;;;;;3.85;3.15;;;;;;;-145.63;33.76;38093.50;5020670;28;20026;-68
2023/09/04 09:39:03;;;;;;;4.53;2.60;;;;;;;-145.63;34.58;38079.81;5025754;28;20022;-68
2023/09/04 09:41:29;;;;;;;4.70;3.28;;;;;;;-145.63;34.68;38138.47;5025735;28;20022;-67
2023/09/04 09:43:55;;;;;;;4.97;2.97;;;;;;;-145.63;35.26;38126.72;5033089;28;20022;-67
2023/09/04 09:46:21;;;;;;;3.85;2.35;;;;;;;-145.63;35.89;38128.69;5028866;28;20262;-68
2023/09/04 09:48:47;;;;;;;5.22;3.17;;;;;;;-145.63;35.71;38197.13;5030383;28;20052;-68
2023/09/04 09:51:14;;;;;;;4.03;2.60;;;;;;;-145.63;34.48;38236.22;5025527;28;20235;-67
2023/09/04 09:53:48;;;;;;;3.55;2.40;;;;;;;-145.63;33.87;38247.94;5025849;28;20384;-68
2023/09/04 09:56:15;;;;;;;4.35;2.58;;;;;;;-145.63;34.98;38214.72;5026764;28;20029;-68
2023/09/04 09:58:43;;;;;;;3.28;2.78;;;;;;;-145.63;36.56;38230.34;5021722;28;20028;-69
2023/09/04 10:01:08;;;;;;;3.72;2.47;;;;;;;-145.63;35.72;38246.00;5018228;28;20029;-69
2023/09/04 10:03:35;;;;;;;3.45;2.20;;;;;;;-145.63;35.72;38206.88;5022361;28;20076;-69
2023/09/04 10:06:06;;;;;;;3.58;2.60;;;;;;;-145.63;35.10;37661.44;5028905;28;20037;-68
2023/09/04 10:08:43;;;;;;;4.00;3.20;;;;;;;-145.63;34.32;38177.56;5021880;28;20037;-69
2023/09/04 10:11:12;;;;;;;3.67;2.70;;;;;;;-145.63;34.37;38132.59;5016762;28;20045;-69
2023/09/04 10:14:17;;;;;;;4.78;2.65;;;;;;;-145.63;34.60;38021.16;5017965;28;20060;-68
2023/09/04 10:16:50;;;;;;;5.38;2.40;;;;;;;-145.63;33.47;38242.09;4987637;28;20033;-68
2023/09/04 10:19:17;;;;;;;4.15;3.00;;;;;;;-145.63;34.30;38300.75;5019985;28;20042;-69
2023/09/04 10:21:51;;;;;;;5.70;2.58;;;;;;;-145.63;35.32;38152.16;5028357;28;20091;-70
2023/09/04 10:24:28;;;;;;;7.82;2.90;;;;;;;-145.63;35.04;38177.56;5028514;28;20049;-69
2023/09/04 10:27:10;;;;;;;3.60;2.72;;;;;;;-145.63;34.85;38259.69;5032182;28;20048;-68
2023/09/04 10:29:48;;;;;;;4.57;2.40;;;;;;;-145.63;34.68;38304.66;5031025;28;20088;-68
2023/09/04 10:32:14;;;;;;;8.75;2.95;;;;;;;-145.63;33.82;38214.72;5027891;28;20322;-69
2023/09/04 10:34:41;;;;;;;2.90;2.47;;;;;;;-145.63;35.03;38222.53;5026559;28;20036;-67
2023/09/04 10:37:11;;;;;;;7.15;3.00;;;;;;;-145.63;35.08;38183.44;5024808;28;20029;-68
2023/09/04 10:39:38;;;;;;;4.97;2.95;;;;;;;-145.63;33.77;38202.97;5024587;28;20041;-69
2023/09/04 10:42:04;;;;;;;6.13;3.30;;;;;;;-145.63;33.46;38199.06;5024694;28;20244;-68
2023/09/04 10:44:46;;;;;;;6.00;3.65;;;;;;;-145.63;34.73;38195.16;5026590;28;20049;-69
2023/09/04 10:47:13;;;;;;;6.07;3.50;;;;;;;-145.63;34.97;38195.16;5021696;28;20357;-68
2023/09/04 10:49:41;;;;;;;5.80;3.30;;;;;;;-145.63;35.99;38240.13;5034034;28;21052;-68
2023/09/04 10:52:08;;;;;;;5.22;3.10;;;;;;;-145.63;33.87;38251.84;5024279;28;20036;-68
2023/09/04 10:54:33;;;;;;;8.50;2.97;;;;;;;-145.63;34.93;38202.97;5024762;28;20076;-67
2023/09/04 10:57:07;;;;;;;7.43;3.70;;;;;;;-145.63;33.92;38201.03;5023118;28;20101;-68
2023/09/04 10:59:55;;;;;;;5.30;3.28;;;;;;;-145.63;34.03;38199.06;5023978;28;20029;-68
2023/09/04 11:02:32;;;;;;;4.15;3.05;;;;;;;-145.63;33.76;38224.47;5029225;28;20029;-68
2023/09/04 11:05:00;;;;;;;4.38;3.00;;;;;;;-145.63;34.19;38210.81;5027449;28;20026;-67
2023/09/04 11:07:31;;;;;;;3.38;2.75;;;;;;;-145.63;34.10;38271.41;5027896;28;20079;-68
2023/09/04 11:10:32;;;;;;;2.60;2.40;;;;;;;-145.63;33.24;38240.13;5024159;28;20340;-67